x

8419317 - Wells, Me (welm1) Weather Station

1:30 - Tue 7th Jul 2015 All times are EDT. -4 hours from GMT.

  • Wind
    14mph, 16mph gusts
  • Sea Temp 60°f
  • Ar Temp 66°f
  • Sea Pressure 1016.4mb
  • 8419317 - Wells, Me
  • 8419317 - Wells, Me

More Historic Weather Station data

Upgrade to MSW Pro to gain access to the past 30 days of data for over 8000 Wavebouys and Weather Stations around the globe.

Join Pro

Comparision Forecast

View Surf forecast
   
Ter 07/07 1:30 14 16 mph 1016.4mb 60f 66f
1:24 13 16 mph 1016.3mb 61f 66f
1:18 10 14 mph 1016.2mb 61f 67f
1:12 11 16 mph 1016.4mb 61f 66f
1:06 10 13 mph 1016.5mb 61f 66f
1:00 13 16 mph 1016.6mb 61f 66f
12:48 13 15 mph 1016.8mb 61f 66f
12:36 15 21 mph 1017mb 60f 66f
12:30 16 20 mph 1017mb 60f 67f
12:12 13 17 mph 1017.3mb 60f 67f
12:06 14 17 mph 1017.4mb 60f 67f
12:00 14 18 mph 1017.5mb 60f 67f
11:06 13 17 mph 1017.7mb 60f 67f
10:24 9 13 mph 1018.2mb 59f 67f
10:18 11 15 mph 1018.3mb 59f 67f
10:12 10 14 mph 1018.2mb 59f 67f
10:06 11 15 mph 1018.3mb 59f 67f
10:00 10 13 mph 1018.3mb 59f 67f
9:54 8 10 mph 1018.3mb 59f 67f
9:48 7 9 mph 1018.3mb 59f 67f
9:42 8 10 mph 1018.3mb 59f 66f
9:36 9 11 mph 1018.3mb 59f 66f
9:30 10 13 mph 1018.3mb 59f 65f
9:24 9 10 mph 1018.2mb 59f 65f
9:18 10 13 mph 1018.3mb 59f 65f
9:12 9 11 mph 1018.3mb 59f 65f
9:06 10 11 mph 1018.3mb 59f 66f
9:00 8 10 mph 1018.3mb 59f 66f
8:54 8 10 mph 1018.3mb 59f 66f
8:48 8 10 mph 1018.4mb 59f 66f
8:42 9
mph
1018.4mb 59f 66f
8:36 8 9 mph 1018.4mb 59f 66f
8:30 9 10 mph 1018.3mb 59f 65f
8:24 10 11 mph 1018.4mb 59f 64f
8:18 9 10 mph 1018.4mb 58f 65f
8:12 8
mph
1018.3mb 58f 65f
8:06 7 8 mph 1018.4mb 58f 66f
8:00 7 8 mph 1018.5mb 58f 66f
7:54 7
mph
1018.5mb 58f 66f
7:48 7 8 mph 1018.6mb 58f 66f
7:42 6 7 mph 1018.5mb 58f 66f
7:36 6
mph
1018.6mb 58f 66f
7:30 6
mph
1018.6mb 58f 65f
7:24 5
mph
1018.6mb 58f 66f
7:18 2 3 mph 1018.6mb 58f 66f
7:12  -  3 mph 1018.6mb 58f 65f
7:06 2 3 mph 1018.6mb 58f 66f
7:00 1
mph
1018.6mb 57f 66f
6:54  -  1 mph 1018.7mb 57f 66f
6:48  -  2 mph 1018.6mb 57f 64f
6:42 1 2 mph 1018.6mb 57f 63f
6:36 1 2 mph 1018.6mb 57f 62f
6:30 2
mph
1018.5mb 57f 61f
6:24 1
mph
1018.5mb 57f 61f
6:18 1
mph
1018.4mb 57f 61f
6:12 1
mph
1018.5mb 57f 61f
6:06  -  1 mph 1018.5mb 57f 61f
6:00  -  mph 1018.5mb 57f 61f
5:54  -  mph 1018.5mb 57f 60f
5:48  -  mph 1018.5mb 57f 60f
5:42  -  1 mph 1018.5mb 57f 60f
5:36  -  1 mph 1018.4mb 56f 60f
5:30 1 2 mph 1018.3mb 56f 60f
5:24 1 2 mph 1018.3mb 56f 60f
5:18 2 3 mph 1018.3mb 56f 59f
5:12 1 2 mph 1018.2mb 56f 60f
5:06  -  1 mph 1018.1mb 56f 60f
5:00  -  2 mph 1018.1mb 56f 60f
4:54 1 2 mph 1017.9mb 56f 60f
4:48  -  1 mph 1017.9mb 56f 60f
4:42  -  1 mph 1018mb 56f 60f
4:36  -  mph 1018mb 56f 60f
4:30  -  mph 1017.9mb 56f 60f
4:24  -  mph 1017.9mb 55f 60f
4:18  -  1 mph 1017.9mb 55f 60f
4:12 1
mph
1017.8mb 55f 60f
4:06 1
mph
1017.8mb 56f 60f
4:00 1
mph
1017.8mb 56f 60f
3:54  -  1 mph 1017.7mb 56f 60f
3:48  -  1 mph 1017.7mb 56f 60f
3:42  -  1 mph 1017.8mb 56f 60f
3:36  -  1 mph 1017.8mb 56f 60f
3:30  -  1 mph 1017.8mb 56f 60f
3:24  -  1 mph 1017.8mb 57f 60f
3:18 1
mph
1017.8mb 57f 61f
3:12  -  1 mph 1017.9mb 57f 60f
3:06  -  1 mph 1017.8mb 57f 61f
3:00  -  mph 1017.8mb 57f 61f
2:54  -  2 mph 1017.9mb 57f 61f
2:48 2 3 mph - 57f 62f
2:42 2 3 mph - 57f 61f
2:36 3 5 mph - 57f 62f
2:30 3 5 mph 1018mb 57f 62f
2:24 3 6 mph 1018.1mb 56f 61f
2:18 5 6 mph 1018.2mb - 61f
2:12 6 7 mph 1018.2mb - 61f
2:06 3 5 mph 1018.1mb - 61f
2:00  -  2 mph 1018.1mb 56f 60f
1:54  -  2 mph 1018.1mb 56f 60f
1:48 2 3 mph 1018.1mb 56f 60f
1:42 2
mph
1018.1mb 56f 60f
1:36 2
mph
1018.1mb 57f 60f
1:30  -  1 mph 1018.2mb 57f 61f
1:24  -  1 mph 1018.2mb 57f 61f
1:18 1
mph
1018.2mb 57f 61f
1:12  -  1 mph 1018.3mb 57f 60f
1:06  -  2 mph 1018.3mb 57f 60f
1:00 2
mph
1018.4mb 58f 60f
12:54 2
mph
1018.4mb 58f 60f
12:48 2
mph
1018.4mb 58f 61f
12:42 2
mph
1018.5mb 59f 61f
12:36 2
mph
1018.5mb 60f 61f
12:30  -  1 mph 1018.5mb 61f 61f
12:24 1
mph
1018.5mb 62f 61f
12:18 1 2 mph 1018.6mb 63f 61f
12:12 1 2 mph 1018.6mb 63f 61f
12:06  -  1 mph 1018.7mb 63f 61f
12:00  -  1 mph 1018.6mb 64f 61f
Seg 07/06 11:54  -  1 mph 1018.5mb 64f 61f
11:48 1 2 mph 1018.5mb 64f 61f
11:42 2
mph
1018.4mb 64f 61f
11:36 2
mph
1018.4mb 64f 61f
11:30 2 3 mph 1018.4mb 64f 62f
11:24 2
mph
1018.4mb 64f 62f
11:18 3
mph
1018.3mb 64f 62f
11:12 2 3 mph 1018.3mb 64f 62f
11:06 2 3 mph 1018.3mb 64f 63f
11:00 3
mph
1018.3mb 64f 63f
10:54 2
mph
1018.2mb 64f 63f
10:48 1 3 mph 1018.2mb 64f 63f
10:42 2 3 mph 1018.2mb 64f 64f
10:36 3
mph
1018.1mb 64f 63f
10:30 1 2 mph 1018.1mb 64f 63f
10:24 2
mph
1018.2mb 64f 65f
10:18 2
mph
1018.1mb 64f 64f
10:12  -  1 mph 1018.2mb 63f 65f
10:06 1 3 mph 1018.2mb 63f 65f
10:00  -  2 mph 1018.2mb 63f 65f
9:54  -  2 mph 1018.3mb 63f 65f
9:48  -  2 mph 1018.3mb 63f 65f
9:42  -  2 mph 1018.3mb 62f 65f
9:36 1
mph
1018.3mb 62f 65f
9:30  -  1 mph 1018.3mb 62f 65f
9:24  -  1 mph 1018.3mb 62f 65f
9:18 1 2 mph 1018.4mb 62f 65f
9:12  -  2 mph 1018.4mb 62f 65f
9:06 1 2 mph 1018.4mb 62f 65f
9:00 2
mph
1018.5mb 62f 65f
8:54 2
mph
1018.4mb 62f 65f
8:48 1 2 mph 1018.5mb 62f 65f
8:42 1 3 mph 1018.4mb 63f 65f
8:36 3 5 mph 1018.4mb 63f 66f
8:30 2 3 mph 1018.5mb 63f 66f
8:24 3 5 mph 1018.6mb 63f 66f
8:18 3 5 mph 1018.5mb 63f 66f
8:12 3 5 mph 1018.5mb 62f 66f
8:06 2 5 mph 1018.5mb 62f 66f
8:00 3 5 mph 1018.6mb 62f 66f
7:54 5 6 mph 1018.7mb 62f 66f
7:48 5 6 mph 1018.6mb 62f 67f
7:42 5 6 mph 1018.6mb 61f 67f
7:36 6 7 mph 1018.7mb 61f 67f
7:30 6 7 mph 1018.7mb 61f 67f
7:24 6 7 mph 1018.8mb 61f 67f
7:18 6 7 mph 1018.8mb 60f 68f
7:12 5 7 mph 1018.8mb 60f 68f
7:06 5 6 mph 1018.9mb 60f 69f
7:00 3 6 mph 1018.9mb 60f 69f
6:54 6 8 mph 1018.8mb 60f 68f
6:48 8 10 mph 1018.8mb 60f 68f
6:42 7 9 mph 1018.8mb 60f 68f
6:36 8 9 mph 1018.9mb 60f 68f
6:30 8 11 mph 1018.8mb 60f 68f
6:24 8 9 mph 1018.8mb 60f 68f
6:18 8 10 mph 1018.9mb 60f 69f
6:12 8 10 mph 1018.9mb 59f 69f
6:06 8 10 mph 1019mb 59f 69f
6:00 8 10 mph 1019.1mb 59f 69f
5:54 7 8 mph 1019.2mb 59f 69f
5:48 7 9 mph 1019.2mb 59f 69f
5:42 6 8 mph 1019.2mb 58f 69f
5:36 7 8 mph 1019.2mb 58f 69f
5:30 7 9 mph 1019.2mb 58f 69f
5:24 7 8 mph 1019.3mb 58f 69f
5:18 7 8 mph 1019.3mb 58f 69f
5:12 6 8 mph 1019.3mb 58f 69f
5:06 6 8 mph 1019.2mb 57f 69f
5:00 8 10 mph 1019.3mb 57f 69f
4:54 7 9 mph 1019.4mb 57f 69f
4:48 7 9 mph 1019.4mb 56f 69f
4:42 7 8 mph 1019.5mb 56f 69f
4:36 6 7 mph 1019.5mb 56f 69f
4:30 6 9 mph 1019.6mb 56f 69f
4:24 7 9 mph 1019.6mb 56f 69f
4:18 6 8 mph 1019.6mb 56f 69f
4:12 6 8 mph 1019.6mb 55f 69f
4:06 6 8 mph 1019.6mb 55f 69f
4:00 6 8 mph 1019.7mb 55f 69f
3:54 6 7 mph 1019.6mb 54f 70f
3:48 7 9 mph 1019.6mb 55f 69f
3:42 7 9 mph 1019.7mb 56f 70f
3:36 7 9 mph 1019.8mb 56f 70f
3:30 7 9 mph 1019.8mb 56f 70f
3:24 8 11 mph 1019.9mb 57f 70f
3:18 8 10 mph 1020mb 57f 70f
3:12 8 11 mph 1020mb 57f 70f
3:06 9 11 mph 1020mb 57f 70f
3:00 9 11 mph 1020.1mb 57f 70f
2:54 9 10 mph 1020.2mb 57f 70f
2:48 8 10 mph 1020.2mb 57f 70f
2:42 8 10 mph 1020.3mb 57f 70f
2:36 8 11 mph 1020.3mb 56f 70f
2:30 8 10 mph 1020.4mb 56f 70f
2:24 8 10 mph 1020.5mb 56f 70f
2:18 8 9 mph 1020.5mb 56f 70f
2:12 8 11 mph 1020.5mb 56f 70f
2:06 9 13 mph 1020.5mb 56f 70f
2:00 9 10 mph 1020.4mb 56f 70f
1:54 8 11 mph 1020.4mb 56f 70f
1:48 9 11 mph 1020.4mb 56f 70f
1:42 8 10 mph 1020.5mb 56f 70f
1:36 9 11 mph 1020.5mb 56f 70f
1:30 8 11 mph 1020.4mb 56f 71f
1:24 8 10 mph 1020.5mb 56f 71f
1:18 7 8 mph 1020.4mb 56f 72f
1:12 6 7 mph 1020.4mb 56f 72f
1:06 6 7 mph 1020.4mb 56f 72f
1:00 6 7 mph 1020.5mb 56f 72f
12:54 6
mph
1020.6mb 56f 72f
12:48 5 7 mph 1020.6mb 56f 72f
12:42 6 8 mph 1020.6mb 57f 72f
12:36 7 8 mph 1020.6mb 57f 72f
12:30 7 8 mph 1020.6mb 57f 71f
12:24 7 8 mph 1020.7mb 57f 72f
12:18 6 7 mph 1020.8mb 58f 72f
12:12 7 8 mph 1020.9mb 58f 71f
12:06 7 8 mph 1020.8mb 58f 72f
12:00 6 7 mph 1020.8mb 58f 72f
11:54 6 7 mph 1020.8mb 58f 73f
11:48 5 6 mph 1020.7mb 58f 73f
11:42 5 6 mph 1020.6mb 58f 73f
11:36 5 7 mph 1020.5mb 58f 72f
11:30 6 7 mph 1020.5mb 58f 72f
11:24 5 7 mph 1020.6mb 58f 71f
11:18 5 7 mph 1020.7mb 58f 70f
11:12 6 8 mph 1020.9mb 58f 71f
11:06 5 7 mph 1020.9mb 58f 71f
11:00 7 8 mph 1020.9mb 58f 70f
10:54 5 8 mph 1020.9mb 58f 69f
10:48 6 8 mph 1020.9mb 58f 71f
10:42 9 11 mph 1021mb 58f 71f
10:36 5 6 mph 1020.9mb 58f 73f
10:30 6 8 mph 1020.9mb 58f 71f
10:24 6 8 mph 1020.8mb 58f 71f
10:18 5 6 mph 1020.8mb 58f 73f
10:12 6
mph
1020.7mb 58f 74f
10:06 5
mph
1020.6mb 58f 75f
10:00 3
mph
1020.5mb 57f 76f
9:54 5 6 mph 1020.5mb 57f 75f
9:48 3 5 mph 1020.5mb 57f 75f
9:42 3
mph
1020.5mb 57f 75f
9:36 3
mph
1020.5mb 57f 74f
9:30 5 6 mph 1020.5mb 57f 74f
9:24 3 5 mph 1020.5mb 57f 74f
9:18 2 3 mph 1020.6mb 57f 73f
9:12 2
mph
1020.5mb 57f 72f
9:06 2 5 mph 1020.5mb 57f 71f
9:00 5 6 mph 1020.6mb 57f 70f
8:54 6
mph
1020.5mb 57f 71f
8:48 2 3 mph 1020.4mb 57f 71f
8:42 2 5 mph 1020.3mb 57f 72f
8:36 5
mph
1020.3mb 57f 73f
8:30 1 2 mph 1020.3mb 57f 74f
8:24 1 2 mph 1020.2mb 57f 74f
8:18 2
mph
1020.1mb 57f 74f
8:12 2 6 mph 1020.1mb 57f 73f
8:06 5 6 mph 1020.1mb 57f 72f
8:00 6 7 mph 1020mb 57f 72f
7:54 6
mph
1019.9mb 57f 72f
7:48 3 6 mph 1019.9mb 57f 71f
7:42 3 5 mph 1020mb 57f 70f
7:36 5 6 mph 1019.9mb 57f 70f
7:30 3 6 mph 1019.8mb 57f 69f
7:24 5 6 mph 1019.8mb 57f 69f
7:18 3
mph
1019.8mb 57f 68f
7:12 2 3 mph 1019.7mb 57f 68f
7:06 1 2 mph 1019.7mb 56f 68f
7:00 1
mph
1019.8mb 56f 68f
6:54  -  1 mph 1019.7mb 56f 67f
6:48 1
mph
1019.6mb 56f 67f
6:42 1 2 mph 1019.6mb 56f 65f
6:36 1 2 mph 1019.6mb 56f 65f
6:30 1 2 mph 1019.6mb 56f 65f
6:24  -  1 mph 1019.5mb 56f 66f
6:18  -  2 mph 1019.5mb 56f 65f
6:12 1 2 mph 1019.5mb 56f 64f
6:06  -  1 mph 1019.4mb 56f 64f
6:00  -  1 mph 1019.4mb 56f 63f
5:54 1 3 mph 1019.2mb 56f 62f
5:48 3
mph
1019.2mb 56f 62f
5:42 2 3 mph 1019.2mb 56f 62f
5:36 1 2 mph 1019.2mb 56f 62f
5:30  -  1 mph 1019.2mb 56f 62f
5:24  -  mph 1019.2mb 56f 62f
5:18  -  1 mph 1019.2mb 56f 62f
5:12 1 2 mph 1019.3mb 56f 63f
5:06 1 3 mph 1019.3mb 56f 63f
5:00 2 3 mph 1019.3mb 56f 63f
4:54 2 3 mph 1019.4mb 55f 63f
4:48  -  1 mph 1019.4mb 55f 63f
4:42  -  2 mph 1019.4mb 55f 63f
4:36 1 2 mph 1019.4mb 55f 63f
4:30 1
mph
1019.4mb 55f 63f
4:24  -  1 mph 1019.4mb 55f 63f
4:18  -  2 mph 1019.4mb 55f 63f
4:12 2 3 mph 1019.2mb 55f 63f
4:06 1 2 mph 1019.2mb 55f 64f
4:00 1 2 mph 1019.2mb 55f 64f
3:54 2 5 mph 1019.1mb 55f 64f
3:48 2 3 mph 1019mb 55f 64f
3:42 1 2 mph 1019mb 55f 64f
3:36 2 5 mph 1019mb 55f 65f
3:30 5
mph
1019mb 54f 65f
3:24 5
mph
1018.9mb 54f 65f
3:18 2 3 mph 1019mb 54f 64f
3:12 2 5 mph 1019mb 55f 65f
3:06 5 6 mph 1019.1mb 55f 65f
3:00 5 7 mph 1019.1mb 55f 65f
2:54 6 7 mph 1019.1mb 55f 64f
2:48  -  mph - 55f -
2:42  -  mph - 55f -
2:36  -  mph - 55f -
2:30 2
mph
1019mb 55f 64f
2:24 2 3 mph 1018.9mb 55f 65f
2:18 3
mph
1018.9mb 55f 64f
2:12 3
mph
1018.9mb 55f 64f
2:06 3 6 mph 1018.8mb 55f 64f
2:00 5 6 mph 1018.8mb 55f 64f
1:54 3 6 mph 1018.8mb 55f 65f
1:48 3 5 mph 1018.8mb 55f 65f
1:42 3 5 mph 1018.8mb 55f 65f
1:36 5 6 mph 1018.8mb 55f 65f
1:30 5 6 mph 1018.8mb 55f 65f
1:24 3 5 mph 1018.7mb 55f 65f
1:18 2 3 mph 1018.7mb 55f 65f
1:12 2 3 mph 1018.8mb 55f 65f
1:06 3 6 mph 1018.8mb 55f 66f
1:00 5 6 mph 1018.9mb 55f 66f
12:54 3 5 mph 1018.9mb 55f 65f
12:48 3 5 mph 1019mb 55f 64f
12:42 3 5 mph 1019mb 55f 64f
12:36 3
mph
1018.9mb 55f 64f
12:30 1 2 mph 1018.9mb 55f 65f
12:24  -  1 mph 1018.8mb 55f 65f
12:18  -  2 mph 1018.8mb 55f 65f
12:12  -  mph 1018.8mb 55f 65f
12:06  -  1 mph 1018.7mb 55f 65f
12:00  -  1 mph 1018.7mb 55f 65f
Dom 07/05 11:54  -  2 mph 1018.7mb 56f 65f
11:48 2
mph
1018.6mb 56f 65f
11:42 2 3 mph 1018.6mb 56f 66f
11:36 2 3 mph 1018.6mb 57f 67f
11:30 2
mph
1018.6mb 57f 67f
11:24 2 3 mph 1018.5mb 58f 67f
11:18 2 3 mph 1018.4mb 58f 67f
11:12 1 2 mph 1018.4mb 59f 66f
11:06  -  2 mph 1018.3mb 60f 66f
11:00 1 3 mph 1018.3mb 61f 66f
10:54 2 3 mph 1018.2mb 62f 67f
10:48 2 5 mph 1018.2mb 63f 67f
10:42 3 5 mph 1018.2mb 63f 67f
10:36 1 5 mph 1018.2mb 63f 68f
10:30 1 2 mph 1018.2mb 63f 68f
10:24  -  1 mph 1018.2mb 63f 68f
10:18  -  2 mph 1018.2mb 63f 67f
10:12  -  1 mph 1018.2mb 63f 67f
10:06  -  1 mph 1018mb 63f 68f
10:00  -  1 mph 1018mb 63f 68f
9:54 1 3 mph 1017.9mb 63f 69f
9:48 3 5 mph 1017.8mb 63f 70f
9:42 3 5 mph 1017.8mb 62f 69f
9:36 2 5 mph 1017.7mb 62f 69f
9:30 6
mph
1017.6mb 62f 70f
9:24 6
mph
1017.4mb 62f 70f
9:18 2 5 mph 1017.4mb 62f 70f
9:12 3 6 mph 1017.2mb 61f 73f
9:06 3 6 mph 1017.1mb 61f 74f
9:00 5 6 mph 1017.1mb 61f 74f
8:54 3 5 mph 1016.9mb 61f 74f
8:48 3 5 mph 1016.8mb 61f 74f
8:42 5 6 mph 1016.8mb 61f 75f
8:36 3 5 mph 1016.7mb 60f 76f
8:30 5 6 mph 1016.7mb 60f 76f
8:24 3 6 mph 1016.7mb 60f 77f
8:18 3 6 mph 1016.7mb 60f 77f
8:12 3 6 mph 1016.6mb 60f 78f
8:06 5 7 mph 1016.6mb 60f 78f
8:00 6 7 mph 1016.5mb 60f 78f
7:54 5 7 mph 1016.5mb 60f 79f
7:48 3 6 mph 1016.6mb 61f 79f
7:42 6 7 mph 1016.5mb 61f 80f
7:36 3 6 mph 1016.5mb 61f 80f
7:30 5 8 mph 1016.5mb 61f 80f
7:24 6 8 mph 1016.4mb 61f 81f
7:18 6 8 mph 1016.3mb 61f 81f
7:12 6 10 mph 1016.3mb 61f 81f
7:06 6 11 mph 1016.2mb 61f 82f
7:00 5 10 mph 1016.1mb 61f 82f
6:54 7 9 mph 1016mb 60f 82f
6:48 5 7 mph 1015.9mb 60f 82f
6:42 6 10 mph 1015.9mb 60f 82f
6:36 7 13 mph 1015.8mb 60f 83f
6:30 8 13 mph 1015.8mb 59f 83f
6:24 8 13 mph 1015.7mb 59f 83f
6:18 6 11 mph 1015.7mb 59f 83f
6:12 7 10 mph 1015.7mb 59f 83f
6:06 6 8 mph 1015.6mb 59f 82f
6:00 6 8 mph 1015.6mb 59f 82f
5:54 5 7 mph 1015.5mb 59f 82f
5:48 5 9 mph 1015.6mb 59f 83f
5:42 6 10 mph 1015.5mb 59f 83f
5:36 6 11 mph 1015.5mb 59f 83f
5:30 6 14 mph 1015.5mb 59f 83f
5:24 9 14 mph 1015.5mb 59f 83f
5:18 2 6 mph 1015.5mb 59f 80f
5:12 6 10 mph 1015.5mb 58f -
5:06 7 11 mph 1015.6mb 58f -
5:00 8 15 mph 1015.7mb 58f -
4:54 9 13 mph 1015.6mb 58f -
4:48 3 11 mph 1015.6mb 58f -
4:42 9 14 mph 1015.6mb 57f -
4:36 8 15 mph 1015.6mb 57f -
4:30 8 14 mph 1015.6mb 57f 72f
4:24 11 15 mph 1015.7mb 57f 71f
4:18 13 21 mph 1015.7mb 56f 70f
4:12 14 20 mph 1015.8mb 56f 70f
4:06 17 22 mph 1015.8mb 56f 71f
4:00 6 15 mph 1015.9mb 56f 70f
3:54 14 18 mph 1015.9mb 56f 69f
3:48 16 21 mph 1015.8mb 56f 69f
3:42 16 18 mph 1015.9mb 56f 69f
3:36 16 20 mph 1015.9mb 56f 68f
3:30 20 22 mph 1015.9mb 56f 70f
3:24 18 22 mph 1015.9mb 55f 70f
3:18 16 21 mph 1015.9mb 55f 69f
3:12 18 23 mph 1016mb 55f 69f
3:06 18 22 mph 1016mb 55f 69f
3:00 21 22 mph 1016mb 55f 70f
2:54 16 20 mph 1016mb 55f 70f
2:48 18 24 mph 1016.1mb 55f 70f
2:42 14 17 mph 1016mb 55f 68f
2:36 15 20 mph 1016.1mb 55f 68f
2:30 13 15 mph 1016.1mb 56f 68f
2:24 14 18 mph 1016.2mb 56f 69f
2:18 15 17 mph 1016.2mb 55f 69f
2:12 14 16 mph 1016.2mb 55f 69f
2:06 14 17 mph 1016.2mb 55f 69f
2:00 14 15 mph 1016.2mb 55f 70f
1:54 13 15 mph 1016.2mb 55f 69f
1:48 13 15 mph 1016.2mb 55f 69f
1:42 10 14 mph 1016.2mb 55f 69f
1:36 10 15 mph 1016.2mb 55f 69f
1:30 11 14 mph 1016.2mb 55f 70f
1:24 10 14 mph 1016.3mb 55f 69f
1:18 10 15 mph 1016.3mb 55f 69f
1:12 11 14 mph 1016.4mb 55f 68f
1:06 14 18 mph 1016.5mb 55f 69f
1:00 14 15 mph 1016.5mb 55f 70f
12:54 13 14 mph 1016.5mb 55f 70f
12:48 13 14 mph 1016.5mb 55f 69f
12:42 11 13 mph 1016.6mb 55f 69f
12:36 11 14 mph 1016.6mb 55f 70f
12:30 11 13 mph 1016.6mb 55f 70f
12:24 10 11 mph 1016.6mb 55f 70f
12:18 10 11 mph 1016.6mb 55f 71f
12:12 8 10 mph 1016.5mb 55f 71f
12:06 9 11 mph 1016.5mb 55f 70f
12:00 11
mph
1016.6mb 55f 69f
11:54 9
mph
1016.5mb 55f 70f
11:48 7 9 mph 1016.4mb 55f 70f
11:42 9 10 mph 1016.5mb 55f 69f
11:36 9
mph
1016.4mb 56f 69f
11:30 9
mph
1016.4mb 56f 70f
11:24 8
mph
1016.5mb 56f 71f
11:18 7
mph
1016.5mb 56f 71f
11:12 7 9 mph 1016.4mb 56f 71f
11:06 8 9 mph 1016.3mb 56f 71f
11:00 8
mph
1016.3mb 56f 72f
10:54 6
mph
1016.3mb 56f 74f
10:48 6
mph
1016.3mb 56f 74f
10:42 6 7 mph 1016.3mb 56f 73f
10:36 6 7 mph 1016.1mb 56f 72f
10:30 6 8 mph 1016.1mb 56f 72f
10:24 7
mph
1016.1mb 56f 74f
10:18 1 2 mph 1016.1mb 56f 74f
10:12 2 5 mph 1016.2mb 56f 74f
10:06 5 6 mph 1016.2mb 56f 73f
10:00 5 8 mph 1016.3mb 56f 74f
9:54 5 8 mph 1016.3mb 56f 73f
9:48 6 7 mph 1016.3mb 56f 73f
9:42 5 8 mph 1016.3mb 56f 73f
9:36 9 11 mph 1016.3mb 56f 72f
9:30 7 10 mph 1016.3mb 56f 72f
9:24 6 9 mph 1016.4mb 56f 72f
9:18 7 9 mph 1016.5mb 56f 71f
9:12 6 11 mph 1016.6mb 56f 71f
9:06 8 10 mph 1016.5mb 56f 70f
9:00 8 9 mph 1016.5mb 56f 70f
8:54 6 7 mph 1016.5mb 56f 70f
8:48 6 9 mph 1016.4mb 56f 69f
8:42 5 10 mph 1016.4mb 56f 69f
8:36 7 9 mph 1016.3mb 56f 68f
8:30 9 10 mph 1016.2mb 56f 67f
8:24 6 7 mph 1016.1mb 56f 67f
8:18 6 9 mph 1016mb 56f 66f
8:12 3 8 mph 1016mb 56f 66f
8:06 5 8 mph 1016mb 56f 66f
8:00 1 6 mph 1015.9mb 55f 66f
7:54 5 6 mph 1015.8mb 55f 64f
7:48 2 3 mph 1015.7mb 55f 64f
7:42 2 5 mph 1015.6mb 55f 64f
7:36 3 6 mph 1015.5mb 55f 63f
7:30 2 3 mph 1015.5mb 55f 64f
7:24 1 3 mph 1015.3mb 55f 64f
7:18 1 5 mph 1015.3mb 55f 64f
7:12 2 3 mph 1015.1mb 55f 63f
7:06 1 6 mph 1015mb 55f 63f
7:00 3 8 mph 1014.9mb 55f 62f
6:54 3 9 mph 1015mb 55f 61f
6:48 3 5 mph 1014.9mb 55f 61f
6:42  -  3 mph 1014.8mb 55f 61f
6:36 1 2 mph 1014.8mb 55f 61f
6:30  -  3 mph 1014.8mb 55f 60f
6:24 2 6 mph 1014.8mb 55f 60f
6:18 1 2 mph 1014.6mb 55f 60f
6:12  -  2 mph 1014.6mb 55f 59f
6:06  -  2 mph 1014.6mb 55f 59f
6:00 2 3 mph 1014.6mb 55f 59f
5:54 2 3 mph 1014.6mb 55f 59f
5:48 2 3 mph 1014.5mb 55f 58f
5:42 2
mph
1014.5mb 55f 58f
5:36 1 2 mph 1014.4mb 55f 58f
5:30 2
mph
1014.4mb 55f 58f
5:24 1 3 mph 1014.3mb 55f 58f
5:18 1 2 mph 1014.3mb 55f 59f
5:12 1 3 mph 1014.3mb 55f 59f
5:06 2 3 mph 1014.3mb 55f 59f
5:00 2 5 mph 1014.2mb 55f 59f
4:54  -  2 mph 1014.1mb 55f 59f
4:48 1 5 mph 1014.1mb 55f 59f
4:42 5 7 mph 1014.1mb 55f 59f
4:36 3 6 mph 1014.1mb 55f 59f
4:30 5 7 mph 1014.1mb 55f 59f
4:24 3 8 mph 1013.9mb 55f 60f
4:18 3 6 mph 1013.9mb 55f 60f
4:12 5 7 mph 1013.9mb 55f 60f
4:06 3 8 mph 1013.8mb 55f 60f
4:00 5 8 mph 1013.9mb 55f 60f
3:54 6 10 mph 1013.8mb 55f 60f
3:48 7 10 mph 1013.8mb 55f 60f
3:42 3 6 mph 1013.8mb 55f 59f
3:36  -  2 mph 1013.8mb 55f 59f
3:30  -  2 mph 1013.8mb 55f 60f
3:24 2 5 mph 1013.8mb 55f 60f
3:18 3 7 mph 1013.8mb 55f 60f
3:12 5 6 mph 1013.8mb 55f 60f
3:06 3 6 mph 1013.7mb 54f 60f
3:00 3 5 mph 1013.7mb 54f 60f
2:54 5 6 mph 1013.8mb 54f 60f
2:48  -  mph - - 60f
2:42  -  mph - - 60f
2:36  -  mph - - 60f
2:30 6 7 mph 1013.7mb 54f 60f
2:24 3 6 mph 1013.8mb 54f 60f
2:18 1 5 mph 1013.8mb 54f 60f
2:12 1 6 mph 1013.8mb 54f 60f
2:06 1 3 mph 1013.8mb 54f 60f
2:00 2 3 mph 1013.8mb 54f 60f
1:54 2 5 mph 1013.8mb 54f 60f
1:48 5 6 mph 1013.8mb 54f 60f
1:42 5 6 mph 1013.7mb 54f 60f
1:36 5
mph
1013.6mb 54f 59f
1:30 5 6 mph 1013.6mb 55f 59f
1:24 5 6 mph 1013.6mb 54f 59f
1:18 3 5 mph 1013.7mb 54f 59f
1:12 2 3 mph 1013.6mb 54f 59f
1:06 2 3 mph 1013.7mb 54f 59f
1:00 3 5 mph 1013.7mb 54f 59f
12:54 3 5 mph 1013.7mb 54f 59f
12:48 5
mph
1013.8mb 55f 59f
12:42 3
mph
1013.7mb 55f 58f
12:36 2
mph
1013.7mb 55f 58f
12:30 1 3 mph 1013.8mb 55f 58f
12:24 3
mph
1013.8mb 55f 58f
12:18 3
mph
1013.8mb 55f 58f
12:12 1
mph
1013.9mb 55f 58f
12:06  -  1 mph 1013.9mb 55f 58f
12:00 1 2 mph 1013.9mb 55f 58f
Sáb 07/04 11:54 2 3 mph 1013.9mb 55f 58f
11:48 3
mph
1013.8mb 55f 59f
11:42 3
mph
1013.8mb 55f 59f
11:36 2 3 mph 1013.8mb 55f 59f
11:30 2 5 mph 1013.8mb 55f 60f
11:24 3 5 mph 1013.9mb 55f 60f
11:18 5
mph
1014mb 55f 60f
11:12 2
mph
1013.9mb 55f 59f
11:06 2
mph
1014mb 55f 60f
11:00 2 3 mph 1014mb 55f 60f
10:54 1
mph
1014mb 55f 59f
10:48  -  3 mph 1014mb 55f 60f
10:42 2 3 mph 1014.1mb 56f 60f
10:36 2
mph
1014.1mb 56f 60f
10:30 1 2 mph 1014mb 56f 59f
10:24  -  mph 1014mb 57f 59f
10:18  -  3 mph 1014mb 57f 59f
10:12 1 2 mph 1014mb 57f 60f
10:06 2
mph
1014mb 58f 61f
10:00 2 3 mph 1014mb 58f 60f
9:54 2 3 mph 1014mb 59f 60f
9:48  -  1 mph 1014mb 59f 60f
9:42 2 3 mph 1013.9mb 59f 61f
9:36 3
mph
1013.8mb 59f 61f
9:30 1
mph
1013.8mb 59f 61f
9:24 2 3 mph 1013.7mb 59f 61f
9:18 1 2 mph 1013.7mb 59f 61f
9:12 2 3 mph 1013.7mb 58f 62f
9:06 3 5 mph 1013.6mb 58f 62f
9:00 3 6 mph 1013.6mb 58f 61f
8:54 5 6 mph 1013.4mb 58f 62f
8:48 2 3 mph 1013.2mb 58f 62f
8:42 2
mph
1013.2mb 58f 63f
8:36 2
mph
1013mb 58f 63f
8:30 1 2 mph 1013mb 58f 65f
8:24 2 3 mph 1012.9mb 58f 65f
8:18 3
mph
1012.8mb 58f 66f
8:12 3
mph
1012.8mb 58f 67f
8:06 2 3 mph 1012.8mb 58f 67f
8:00 3 5 mph 1012.8mb 58f 68f
7:54 2 6 mph 1012.9mb 58f 68f
7:48 3 6 mph 1012.9mb 57f 68f
7:42 2 5 mph 1013mb 57f 69f
7:36 3 6 mph 1012.9mb 57f 69f
7:30 3 5 mph 1012.9mb 57f 68f
7:24 3 6 mph 1012.8mb 57f 67f
7:18 3
mph
1013mb 57f 68f
7:12 3
mph
1013.1mb 57f 67f
7:06 5
mph
1013mb 57f 67f
7:00 5
mph
1013.1mb 57f 67f
6:54 5 6 mph 1013.1mb 58f 69f
6:48 3 6 mph 1013.2mb 58f 69f
6:42 3 5 mph 1013.3mb 58f 69f
6:36 5
mph
1013.4mb 57f 68f
6:30 1 5 mph 1013.2mb 57f 68f
6:24 1 5 mph 1013.2mb 57f 68f
6:18 2 3 mph 1013.2mb 57f 67f
6:12  -  2 mph 1013.3mb 57f 67f
6:06 1 2 mph 1013.3mb 57f 66f
6:00 1 3 mph 1013.2mb 57f 66f
5:54 1 2 mph 1013.3mb 57f 65f
5:48 2 3 mph 1013.3mb 56f 65f
5:42 2 5 mph 1013.4mb 56f 64f
5:36 5
mph
1013.5mb 56f 64f
5:30 3 5 mph 1013.5mb 56f 64f
5:24 5 6 mph 1013.6mb 56f 63f
5:18 2 5 mph 1013.7mb 56f 63f
5:12 5
mph
1013.9mb 56f 62f
5:06 3 5 mph 1013.9mb 56f 63f
5:00 3 5 mph 1013.9mb 56f 63f
4:54 1 2 mph 1013.9mb 56f 63f
4:48  -  1 mph 1013.8mb 56f 62f
4:42 1 2 mph 1013.7mb 56f 62f
4:36 2 5 mph 1013.8mb 56f 63f
4:30 3 5 mph 1013.9mb 56f 63f
4:24 2 5 mph 1014.1mb 56f 63f
4:18 3
mph
1014.1mb 56f 63f
4:12 3
mph
1014.3mb 56f 63f
4:06 2
mph
1014.2mb 56f 63f
4:00 1 2 mph 1014.2mb 55f 63f
3:54 2
mph
1014.3mb 55f 63f
3:48 1
mph
1014.3mb 55f 63f
3:42 1
mph
1014.4mb 55f 62f
3:36  -  1 mph 1014.5mb 55f 63f
3:30  -  1 mph 1014.5mb 55f 63f
3:24 1 3 mph 1014.5mb 55f 63f
3:18 2 3 mph 1014.5mb 55f 63f
3:12 2 3 mph 1014.5mb 55f 63f
3:06 2 3 mph 1014.4mb 55f 63f
3:00 3 6 mph 1014.5mb 54f 62f
2:54 3 5 mph 1014.6mb 54f 62f
2:48 5 6 mph 1014.6mb 54f 63f
2:42 2 5 mph 1014.4mb 54f 63f
2:36 3 5 mph 1014.4mb 54f 63f
2:30 2 3 mph 1014.4mb 53f 63f
2:24 3 5 mph 1014.4mb 53f 62f
2:18 3 6 mph 1014.4mb 53f 63f
2:12 5 6 mph 1014.4mb 53f 63f
2:06 3 5 mph 1014.3mb 53f 63f
2:00 3 5 mph 1014.4mb 54f 63f
1:54 3 5 mph 1014.3mb 54f 63f
1:48 5 7 mph 1014.4mb 54f 63f
1:42 6
mph
1014.4mb 54f 64f
1:36 3 5 mph 1014.4mb 54f 65f
1:30 2 3 mph 1014.4mb 54f 64f
1:24 3 6 mph 1014.4mb 54f 64f
1:18 5 6 mph 1014.4mb 54f 64f
1:12 5
mph
1014.4mb 54f 64f
1:06 3 5 mph 1014.3mb 54f 65f
1:00 3 5 mph 1014.3mb 54f 65f
12:54 2 3 mph 1014.4mb 54f 65f
12:48 2 3 mph 1014.4mb 54f 64f
12:42 3 5 mph 1014.5mb 54f 64f
12:36 3 5 mph 1014.5mb 54f 63f
12:30 3 5 mph 1014.6mb 54f 63f
12:24 3 6 mph 1014.5mb 54f 63f
12:18 5 6 mph 1014.5mb 54f 64f
12:12 3 5 mph 1014.5mb 54f 64f
12:06 3 5 mph 1014.5mb 54f 64f
12:00 5 6 mph 1014.6mb 54f 64f
11:54 5
mph
1014.7mb 54f 64f
11:48 5 6 mph 1014.7mb 54f 64f
11:42 5 6 mph 1014.8mb 54f 64f
11:36 3 5 mph 1014.7mb 55f 63f
11:30 5 6 mph 1014.7mb 55f 62f
11:24 5 7 mph 1014.8mb 55f 62f
11:18 6 7 mph 1014.9mb 55f 61f
11:12 6 8 mph 1014.9mb 55f 61f
11:06 7 9 mph 1015mb 55f 61f
11:00 9 11 mph 1015mb 55f 61f
10:54 7 10 mph 1015mb 56f 62f
10:48 7 8 mph 1014.9mb 56f 62f
10:42 6 7 mph 1014.9mb 56f 63f
10:36 3
mph
1014.8mb 56f 64f
10:30 3 6 mph 1014.8mb 56f 63f
10:24 6
mph
1014.8mb 56f 63f
10:18 5
mph
1014.8mb 56f 63f
10:12 3 5 mph 1014.8mb 56f 64f
10:06 2 3 mph 1014.7mb 57f 64f
10:00 1 2 mph 1014.7mb 57f 64f
9:54 2 3 mph 1014.8mb 57f 64f
9:48 2 3 mph 1014.7mb 57f 64f
9:42 2
mph
1014.8mb 57f 64f
9:36 1
mph
1014.7mb 57f 64f
9:30  -  2 mph 1014.8mb 57f 64f
9:24 2 3 mph 1014.9mb 57f 64f
9:18 2
mph
1014.9mb 57f 64f
9:12 2
mph
1014.8mb 57f 64f
9:06 2
mph
1014.8mb 57f 63f
9:00 2 3 mph 1014.7mb 57f 63f
8:54 2 3 mph 1014.7mb 57f 63f
8:48 2
mph
1014.8mb 57f 63f
8:42 2 3 mph 1014.8mb 57f 63f
8:36 2
mph
1014.8mb 56f 63f
8:30 2
mph
1014.8mb 56f 63f
8:24 1 2 mph 1014.9mb 56f 63f
8:18 2 3 mph 1014.8mb 56f 63f
8:12  -  3 mph 1014.8mb 56f 63f
8:06 2 5 mph 1014.8mb 56f 62f
8:00 2 3 mph 1014.7mb 56f 62f
7:54 2
mph
1014.7mb 56f 61f
7:48 2
mph
1014.5mb 56f 61f
7:42 1 2 mph 1014.6mb 56f 60f
7:36 1 2 mph 1014.5mb 56f 60f
7:30 1 2 mph 1014.5mb 56f 60f
7:24 2 3 mph 1014.6mb 56f 59f
7:18 3 5 mph 1014.6mb 56f 59f
7:12 3 5 mph 1014.6mb 56f 58f
7:06 2 3 mph 1014.7mb 56f 58f
7:00 1 2 mph 1014.8mb 56f 58f
6:54 2
mph
1014.9mb 56f 57f
6:48  -  1 mph 1015mb 56f 57f
6:42  -  2 mph 1014.9mb 56f 57f
6:36 2 3 mph 1014.9mb 56f 56f
6:30 2
mph
1014.7mb 56f 56f
6:24 1 2 mph 1014.8mb 56f 56f
6:18 2 3 mph 1014.8mb 56f 56f
6:12 3
mph
1014.8mb 56f 56f
6:06 1 2 mph 1014.9mb 56f 56f
6:00 2
mph
1014.9mb 56f 56f
5:54  -  1 mph 1014.9mb 56f 56f
5:48  -  2 mph 1014.8mb 56f 56f
5:42  -  3 mph 1014.8mb 56f 56f
5:36 2 6 mph 1014.7mb 56f 55f
5:30 2 3 mph 1014.6mb 56f 55f
5:24 2 5 mph 1014.6mb 56f 54f
5:18 6
mph
1014.5mb 55f 54f
5:12 5
mph
1014.5mb 55f 54f
5:06 2 5 mph 1014.6mb 55f 53f
5:00 6 8 mph 1014.5mb 55f 53f
4:54 6 7 mph 1014.5mb 55f 54f
4:48 3 5 mph 1014.6mb 55f 54f
4:42 5
mph
1014.6mb 55f 54f
4:36 2 3 mph 1014.6mb 55f 55f
4:30  -  1 mph 1014.6mb 56f 56f
4:24  -  5 mph 1014.6mb 56f 56f
4:18 1 2 mph 1014.6mb 55f 55f
4:12 1 2 mph 1014.5mb 55f 55f
4:06 1 3 mph 1014.5mb 55f 55f
4:00 3 5 mph 1014.6mb 55f 55f
3:54 3 5 mph 1014.6mb 55f 56f
3:48 3 5 mph 1014.6mb 55f 57f
3:42 2
mph
1014.6mb 55f 55f
3:36 1 2 mph 1014.7mb 55f 55f
3:30 1 3 mph 1014.7mb 55f 55f
3:24 3
mph
1014.5mb 55f 55f
3:18 2 3 mph 1014.4mb 55f 55f
3:12 2 3 mph 1014.5mb 55f 55f
3:06 3 5 mph 1014.4mb 54f 56f
3:00  -  1 mph 1014.4mb 54f 56f
2:54 1 2 mph 1014.4mb 54f 56f
2:48  -  1 mph 1014.4mb 54f 55f
2:42 1 5 mph 1014.4mb 54f 55f
2:36 5
mph
1014.2mb 54f 56f
2:30 3
mph
1014.1mb - 56f
2:24 2 5 mph 1014.3mb - 57f
2:18 5
mph
1014.2mb 54f 57f
2:12 3
mph
1014.3mb 54f 57f
2:06 2 3 mph 1014.3mb 54f 57f
2:00 5 6 mph 1014.4mb 53f 57f
1:54 1 2 mph 1014.4mb 53f 57f
1:48 2
mph
1014.5mb 53f 57f
1:42 1 2 mph 1014.5mb 53f 57f
1:36 2 3 mph 1014.5mb 53f 58f
1:30 2 3 mph 1014.5mb 53f 59f
1:24 2
mph
1014.5mb 53f 59f
1:18 1 2 mph 1014.4mb 53f 59f
1:12  -  mph 1014.4mb 53f 59f
1:06 1 2 mph 1014.5mb 54f 59f
1:00 1 2 mph 1014.4mb 54f 59f
12:54 2 3 mph 1014.3mb 54f 59f
12:48 3
mph
1014.3mb 53f 58f
12:42 3
mph
1014.4mb 53f 58f
12:36  -  2 mph 1014.4mb 53f 59f
12:30 1 2 mph 1014.2mb 53f 59f
12:24  -  2 mph 1014.3mb 54f 60f
12:18 2
mph
1014.3mb 54f 60f
12:12 2
mph
1014.3mb 54f 59f
12:06  -  2 mph 1014.2mb 54f 59f
12:00  -  2 mph 1014.2mb 54f 60f
Sex 07/03 11:54 2 3 mph 1014.2mb 54f 61f
11:48 2 3 mph 1014.2mb 54f 61f
11:42 2 3 mph 1014.2mb 54f 60f
11:36  -  3 mph 1014.2mb 54f 58f
11:30 1 3 mph 1014.2mb 55f 58f
11:24 3
mph
1014.1mb 55f 58f
11:18  -  1 mph 1014.2mb 55f 58f
11:12 1 2 mph 1014.2mb 55f 58f
11:06  -  2 mph 1014.1mb 55f 60f
11:00 2 3 mph 1014mb 55f 60f
10:54 2
mph
1014mb 55f 60f
10:48 2
mph
1014mb 55f 60f
10:42 1
mph
1013.8mb 55f 60f
10:36 1 3 mph 1013.8mb 55f 61f
10:30 2 3 mph 1013.8mb 56f 61f
10:24 2
mph
1013.9mb 56f 60f
10:18 1 2 mph 1013.9mb 56f 60f
10:12 1 3 mph 1013.9mb 56f 61f
10:06 2 3 mph 1013.9mb 56f 61f
10:00 2 3 mph 1013.9mb 56f 60f
9:54 1 2 mph 1013.8mb 56f 61f
9:48  -  1 mph 1013.8mb 56f 62f
9:42  -  1 mph 1013.7mb 56f 62f
9:36  -  2 mph 1013.6mb 56f 63f
9:30 2 3 mph 1013.6mb 58f 63f
9:24 2
mph
1013.6mb 59f 63f
9:18 1 5 mph 1013.6mb 59f 62f
9:12  -  2 mph 1013.5mb 60f 62f
9:06 1 2 mph 1013.3mb 61f 63f
9:00 2
mph
1013.3mb 61f 63f
8:54 1 3 mph 1013.3mb 61f 63f
8:48 3 5 mph 1013.3mb 61f 63f
8:42 3
mph
1013.2mb 61f 62f
8:36 2
mph
1013.2mb 61f 65f
8:30  -  1 mph 1013.3mb 61f 65f
8:24 1 2 mph 1013.3mb 61f 65f
8:18  -  1 mph 1013.3mb 61f 65f
8:12  -  mph 1013.2mb 61f 66f
8:06  -  2 mph 1013.2mb 61f 67f
8:00 2
mph
1013.2mb 61f 66f
7:54 2 3 mph 1013.2mb 61f 66f
7:48 3 6 mph 1013.1mb 60f 66f
7:42 2 3 mph 1013.1mb 60f 68f
7:36 1 3 mph 1013mb 60f 68f
7:30 3 6 mph 1013mb 59f 67f
7:24 6 7 mph 1013mb 59f 67f
7:18 6 8 mph 1013mb 59f 67f
7:12 6
mph
1012.9mb 59f 70f
7:06 3 5 mph 1012.8mb 58f 71f
7:00 5 7 mph 1012.7mb 58f 72f
6:54 5 8 mph 1012.7mb 58f 77f
6:48 6 9 mph 1012.5mb 58f 78f
6:42 5 9 mph 1012.5mb 58f 78f
6:36 6 10 mph 1012.5mb 58f 78f
6:30 6 9 mph 1012.4mb 58f 78f
6:24 5 9 mph 1012.4mb 58f 75f